createdAt,value
2023-02-22T00:00:41.342Z,90.09
2023-02-22T00:01:41.385Z,90.33
2023-02-22T00:02:41.316Z,90.71
2023-02-22T00:03:41.301Z,90.95
2023-02-22T00:04:41.331Z,90.91
2023-02-22T00:05:41.286Z,90.91
2023-02-22T00:06:41.276Z,91.01
2023-02-22T00:07:41.269Z,91.42
2023-02-22T00:08:41.250Z,90.97
2023-02-22T00:09:41.237Z,91.38
2023-02-22T00:10:41.228Z,91.38
2023-02-22T00:11:41.215Z,91.18
2023-02-22T00:12:41.209Z,91.07
2023-02-22T00:13:41.198Z,91.18
2023-02-22T00:14:41.209Z,91.07
2023-02-22T00:15:41.188Z,91.28
2023-02-22T00:16:41.205Z,91.18
2023-02-22T00:17:41.155Z,91.28
2023-02-22T00:18:41.296Z,91.38
2023-02-22T00:19:41.132Z,91.28
2023-02-22T00:20:41.134Z,91.07
2023-02-22T00:21:41.107Z,91.38
2023-02-22T00:22:41.100Z,91.42
2023-02-22T00:23:41.110Z,91.79
2023-02-22T00:24:41.077Z,92.04
2023-02-22T00:25:41.070Z,91.90
2023-02-22T00:26:41.072Z,91.83
2023-02-22T00:27:41.053Z,91.83
2023-02-22T00:28:41.037Z,91.38
2023-02-22T00:29:41.034Z,91.01
2023-02-22T00:30:41.136Z,90.56
2023-02-22T00:31:41.071Z,90.60
2023-02-22T00:32:41.053Z,90.30
2023-02-22T00:33:40.981Z,89.99
2023-02-22T00:34:40.968Z,89.78
2023-02-22T00:35:40.962Z,89.68
2023-02-22T00:36:40.946Z,89.78
2023-02-22T00:37:40.939Z,90.19
2023-02-22T00:38:40.935Z,90.30
2023-02-22T00:39:40.940Z,90.50
2023-02-22T00:40:40.907Z,90.60
2023-02-22T00:41:40.946Z,91.32
2023-02-22T00:42:40.895Z,91.42
2023-02-22T00:43:40.875Z,91.01
2023-02-22T00:44:40.883Z,91.01
2023-02-22T00:45:40.941Z,91.22
2023-02-22T00:46:40.864Z,91.57
2023-02-22T00:47:40.837Z,91.46
2023-02-22T00:48:40.826Z,91.42
2023-02-22T00:49:40.811Z,91.63
2023-02-22T00:50:40.808Z,91.52
2023-02-22T00:51:40.787Z,91.83
2023-02-22T00:52:40.777Z,91.73
2023-02-22T00:53:40.779Z,91.52
2023-02-22T00:54:40.767Z,91.01
2023-02-22T00:55:40.748Z,91.16
2023-02-22T00:56:40.736Z,90.81
2023-02-22T00:57:40.729Z,90.54
2023-02-22T00:58:40.719Z,90.24
2023-02-22T00:59:40.707Z,90.03
2023-02-22T01:00:40.697Z,89.88
2023-02-22T01:01:40.752Z,90.30
2023-02-22T01:02:40.703Z,90.24
2023-02-22T01:03:40.661Z,90.71
2023-02-22T01:04:40.654Z,90.81
2023-02-22T01:05:40.642Z,90.60
2023-02-22T01:06:40.649Z,91.22
2023-02-22T01:07:40.623Z,91.16
2023-02-22T01:08:40.609Z,90.75
2023-02-22T01:09:40.599Z,90.50
2023-02-22T01:10:40.658Z,90.24
2023-02-22T01:11:40.575Z,90.33
2023-02-22T01:12:40.573Z,90.13
2023-02-22T01:13:40.553Z,89.82
2023-02-22T01:14:40.550Z,89.92
2023-02-22T01:15:40.533Z,89.92
2023-02-22T01:16:40.607Z,90.03
2023-02-22T01:17:40.525Z,90.03
2023-02-22T01:18:40.532Z,90.13
2023-02-22T01:19:40.492Z,90.17
2023-02-22T01:20:40.490Z,90.13
2023-02-22T01:21:40.493Z,89.92
2023-02-22T01:22:40.463Z,89.41
2023-02-22T01:23:40.457Z,89.72
2023-02-22T01:24:40.442Z,89.72
2023-02-22T01:25:40.428Z,89.76
2023-02-22T01:26:40.447Z,89.56
2023-02-22T01:27:40.416Z,89.82
2023-02-22T01:28:40.403Z,89.82
2023-02-22T01:29:40.385Z,89.97
2023-02-22T01:30:40.677Z,90.17
2023-02-22T01:31:40.367Z,90.03
2023-02-22T01:32:40.356Z,89.92
2023-02-22T01:33:40.347Z,90.33
2023-02-22T01:34:40.360Z,90.33
2023-02-22T01:35:40.324Z,90.24
2023-02-22T01:36:40.314Z,90.33
2023-02-22T01:37:40.299Z,89.92
2023-02-22T01:38:40.289Z,90.03
2023-02-22T01:39:40.282Z,90.03
2023-02-22T01:40:40.269Z,89.82
2023-02-22T01:41:40.255Z,89.72
2023-02-22T01:42:40.246Z,89.20
2023-02-22T01:43:40.233Z,89.27
2023-02-22T01:44:40.239Z,89.31
2023-02-22T01:45:40.215Z,89.31
2023-02-22T01:46:40.201Z,89.11
2023-02-22T01:47:40.189Z,88.90
2023-02-22T01:48:40.182Z,88.80
2023-02-22T01:49:40.172Z,88.69
2023-02-22T01:50:40.182Z,88.49
2023-02-22T01:51:40.149Z,88.12
2023-02-22T01:52:40.135Z,88.18
2023-02-22T01:53:40.127Z,87.98
2023-02-22T01:54:40.121Z,88.18
2023-02-22T01:55:40.103Z,88.07
2023-02-22T01:56:40.094Z,88.07
2023-02-22T01:57:40.089Z,88.18
2023-02-22T01:58:40.086Z,88.39
2023-02-22T01:59:40.064Z,88.59
2023-02-22T02:00:40.048Z,88.59
2023-02-22T02:01:40.047Z,88.80
2023-02-22T02:02:40.033Z,89.11
2023-02-22T02:03:40.070Z,88.90
2023-02-22T02:04:40.031Z,89.41
2023-02-22T02:05:39.996Z,89.52
2023-02-22T02:06:40.035Z,89.31
2023-02-22T02:07:39.977Z,89.20
2023-02-22T02:08:39.975Z,89.04
2023-02-22T02:09:39.966Z,89.11
2023-02-22T02:10:39.945Z,89.20
2023-02-22T02:11:39.936Z,89.31
2023-02-22T02:12:39.921Z,89.20
2023-02-22T02:13:39.917Z,88.73
2023-02-22T02:14:39.910Z,88.53
2023-02-22T02:15:39.894Z,88.53
2023-02-22T02:16:39.914Z,88.12
2023-02-22T02:17:39.871Z,87.91
2023-02-22T02:18:39.862Z,87.60
2023-02-22T02:19:40.003Z,87.60
2023-02-22T02:20:39.841Z,87.60
2023-02-22T02:21:39.838Z,87.09
2023-02-22T02:22:39.843Z,87.29
2023-02-22T02:23:39.807Z,87.40
2023-02-22T02:24:39.812Z,87.29
2023-02-22T02:25:39.799Z,87.29
2023-02-22T02:26:39.779Z,87.09
2023-02-22T02:27:39.765Z,87.20
2023-02-22T02:28:39.755Z,86.99
2023-02-22T02:29:39.742Z,86.88
2023-02-22T02:30:39.833Z,86.68
2023-02-22T02:31:39.836Z,86.78
2023-02-22T02:32:39.777Z,86.78
2023-02-22T02:33:39.704Z,86.88
2023-02-22T02:34:39.694Z,86.88
2023-02-22T02:35:39.685Z,86.78
2023-02-22T02:36:39.670Z,86.58
2023-02-22T02:37:39.663Z,86.27
2023-02-22T02:38:39.754Z,86.48
2023-02-22T02:39:39.653Z,86.68
2023-02-22T02:40:39.739Z,86.78
2023-02-22T02:41:39.631Z,86.99
2023-02-22T02:42:39.606Z,86.88
2023-02-22T02:43:39.598Z,86.99
2023-02-22T02:44:39.586Z,86.99
2023-02-22T02:45:39.576Z,87.20
2023-02-22T02:46:39.567Z,87.40
2023-02-22T02:47:39.557Z,87.29
2023-02-22T02:48:39.546Z,87.09
2023-02-22T02:49:39.536Z,86.68
2023-02-22T02:50:39.524Z,86.68
2023-02-22T02:51:39.514Z,86.58
2023-02-22T02:52:39.505Z,86.27
2023-02-22T02:53:39.509Z,86.06
2023-02-22T02:54:39.519Z,86.16
2023-02-22T02:55:39.468Z,86.10
2023-02-22T02:56:39.470Z,86.27
2023-02-22T02:57:39.451Z,86.37
2023-02-22T02:58:39.438Z,86.16
2023-02-22T02:59:39.434Z,85.86
2023-02-22T03:00:39.571Z,85.80
2023-02-22T03:01:39.434Z,85.80
2023-02-22T03:02:39.398Z,85.80
2023-02-22T03:03:39.391Z,85.96
2023-02-22T03:04:39.381Z,85.90
2023-02-22T03:05:39.366Z,85.65
2023-02-22T03:06:39.370Z,86.00
2023-02-22T03:07:39.501Z,86.10
2023-02-22T03:08:39.336Z,85.90
2023-02-22T03:09:39.328Z,85.90
2023-02-22T03:10:39.338Z,86.37
2023-02-22T03:11:39.308Z,86.51
2023-02-22T03:12:39.296Z,86.62
2023-02-22T03:13:39.290Z,86.31
2023-02-22T03:14:39.277Z,85.90
2023-02-22T03:15:39.262Z,85.80
2023-02-22T03:16:39.448Z,85.80
2023-02-22T03:17:39.246Z,85.80
2023-02-22T03:18:39.237Z,86.00
2023-02-22T03:19:39.223Z,86.21
2023-02-22T03:20:39.216Z,86.41
2023-02-22T03:21:39.205Z,86.62
2023-02-22T03:22:39.195Z,86.48
2023-02-22T03:23:39.183Z,86.72
2023-02-22T03:24:39.177Z,86.06
2023-02-22T03:25:39.167Z,85.65
2023-02-22T03:26:39.176Z,85.76
2023-02-22T03:27:39.145Z,86.06
2023-02-22T03:28:39.136Z,86.16
2023-02-22T03:29:39.126Z,86.06
2023-02-22T03:30:39.253Z,85.96
2023-02-22T03:31:39.102Z,86.27
2023-02-22T03:32:39.109Z,86.27
2023-02-22T03:33:39.085Z,86.58
2023-02-22T03:34:39.078Z,86.68
2023-02-22T03:35:39.069Z,86.99
2023-02-22T03:36:39.161Z,86.99
2023-02-22T03:37:39.048Z,87.29
2023-02-22T03:38:39.035Z,87.60
2023-02-22T03:39:39.031Z,87.60
2023-02-22T03:40:39.014Z,87.50
2023-02-22T03:41:39.003Z,87.40
2023-02-22T03:42:39.018Z,87.60
2023-02-22T03:43:38.985Z,87.60
2023-02-22T03:44:38.978Z,87.50
2023-02-22T03:45:38.959Z,87.50
2023-02-22T03:46:39.070Z,87.40
2023-02-22T03:47:38.945Z,86.99
2023-02-22T03:48:38.940Z,86.84
2023-02-22T03:49:38.918Z,86.88
2023-02-22T03:50:38.920Z,86.68
2023-02-22T03:51:38.903Z,86.58
2023-02-22T03:52:38.940Z,86.78
2023-02-22T03:53:38.882Z,86.99
2023-02-22T03:54:38.869Z,86.99
2023-02-22T03:55:38.860Z,87.15
2023-02-22T03:56:38.847Z,86.88
2023-02-22T03:57:38.839Z,86.99
2023-02-22T03:58:38.856Z,87.29
2023-02-22T03:59:38.817Z,87.29
2023-02-22T04:00:38.824Z,87.09
2023-02-22T04:01:38.798Z,86.88
2023-02-22T04:02:38.840Z,86.68
2023-02-22T04:03:38.777Z,86.48
2023-02-22T04:04:38.789Z,86.27
2023-02-22T04:05:38.765Z,85.96
2023-02-22T04:06:38.752Z,85.69
2023-02-22T04:07:38.730Z,85.65
2023-02-22T04:08:38.722Z,85.45
2023-02-22T04:09:38.713Z,85.14
2023-02-22T04:10:38.702Z,85.08
2023-02-22T04:11:38.718Z,84.97
2023-02-22T04:12:38.683Z,84.97
2023-02-22T04:13:38.674Z,84.93
2023-02-22T04:14:38.693Z,84.97
2023-02-22T04:15:38.688Z,85.18
2023-02-22T04:16:38.640Z,84.97
2023-02-22T04:17:38.634Z,85.04
2023-02-22T04:18:38.620Z,84.97
2023-02-22T04:19:38.610Z,84.56
2023-02-22T04:20:38.599Z,84.77
2023-02-22T04:21:38.590Z,84.83
2023-02-22T04:22:38.577Z,84.66
2023-02-22T04:23:38.573Z,84.66
2023-02-22T04:24:38.557Z,84.36
2023-02-22T04:25:38.550Z,84.46
2023-02-22T04:26:38.540Z,84.46
2023-02-22T04:27:38.527Z,84.25
2023-02-22T04:28:38.528Z,84.36
2023-02-22T04:29:38.508Z,84.19
2023-02-22T04:30:38.626Z,84.15
2023-02-22T04:31:38.609Z,84.19
2023-02-22T04:32:38.475Z,83.99
2023-02-22T04:33:38.462Z,83.99
2023-02-22T04:34:38.463Z,83.88
2023-02-22T04:35:38.447Z,83.78
2023-02-22T04:36:38.435Z,83.67
2023-02-22T04:37:38.422Z,83.64
2023-02-22T04:38:38.412Z,82.44
2023-02-22T04:39:38.430Z,81.89
2023-02-22T04:40:38.394Z,81.72
2023-02-22T04:41:38.383Z,81.58
2023-02-22T04:42:38.375Z,81.62
2023-02-22T04:43:38.362Z,81.62
2023-02-22T04:44:38.451Z,81.72
2023-02-22T04:45:38.341Z,81.42
2023-02-22T04:46:38.406Z,81.00
2023-02-22T04:47:38.344Z,80.80
2023-02-22T04:48:38.312Z,80.38
2023-02-22T04:49:39.128Z,80.24
2023-02-22T04:50:38.287Z,80.35
2023-02-22T04:51:38.278Z,80.76
2023-02-22T04:52:38.272Z,81.38
2023-02-22T04:53:38.267Z,81.48
2023-02-22T04:54:38.264Z,82.00
2023-02-22T04:55:38.239Z,82.40
2023-02-22T04:56:38.241Z,82.71
2023-02-22T04:57:38.220Z,83.02
2023-02-22T04:58:38.206Z,83.23
2023-02-22T04:59:38.196Z,83.43
2023-02-22T05:00:38.187Z,83.23
2023-02-22T05:01:38.188Z,83.43
2023-02-22T05:02:38.248Z,83.60
2023-02-22T05:03:38.154Z,84.01
2023-02-22T05:04:38.270Z,83.85
2023-02-22T05:05:38.137Z,83.60
2023-02-22T05:06:38.128Z,83.60
2023-02-22T05:07:38.114Z,83.33
2023-02-22T05:08:38.103Z,83.02
2023-02-22T05:09:38.092Z,82.71
2023-02-22T05:10:38.082Z,82.30
2023-02-22T05:11:38.076Z,82.09
2023-02-22T05:12:38.070Z,82.20
2023-02-22T05:13:38.057Z,81.89
2023-02-22T05:14:38.049Z,81.58
2023-02-22T05:15:38.036Z,81.68
2023-02-22T05:16:38.023Z,81.68
2023-02-22T05:17:38.009Z,81.68
2023-02-22T05:18:38.024Z,81.42
2023-02-22T05:19:37.991Z,81.58
2023-02-22T05:20:37.994Z,81.48
2023-02-22T05:21:37.976Z,81.68
2023-02-22T05:22:37.967Z,81.48
2023-02-22T05:23:37.954Z,81.48
2023-02-22T05:24:37.941Z,81.28
2023-02-22T05:25:37.931Z,81.48
2023-02-22T05:26:37.918Z,81.38
2023-02-22T05:27:37.909Z,81.28
2023-02-22T05:28:37.900Z,81.07
2023-02-22T05:29:37.889Z,80.66
2023-02-22T05:30:37.926Z,80.96
2023-02-22T05:31:38.059Z,80.56
2023-02-22T05:32:37.861Z,80.56
2023-02-22T05:33:37.850Z,80.56
2023-02-22T05:34:37.864Z,80.38
2023-02-22T05:35:37.828Z,80.28
2023-02-22T05:36:37.821Z,80.15
2023-02-22T05:37:37.811Z,79.94
2023-02-22T05:38:37.798Z,79.98
2023-02-22T05:39:37.789Z,79.57
2023-02-22T05:40:37.780Z,79.87
2023-02-22T05:41:37.765Z,79.57
2023-02-22T05:42:37.760Z,79.46
2023-02-22T05:43:37.747Z,79.15
2023-02-22T05:44:37.739Z,78.74
2023-02-22T05:45:37.729Z,78.54
2023-02-22T05:46:37.757Z,78.43
2023-02-22T05:47:37.710Z,78.54
2023-02-22T05:48:37.694Z,78.43
2023-02-22T05:49:37.713Z,78.43
2023-02-22T05:50:37.699Z,78.13
2023-02-22T05:51:37.670Z,78.13
2023-02-22T05:52:37.654Z,78.13
2023-02-22T05:53:37.652Z,78.02
2023-02-22T05:54:37.634Z,78.02
2023-02-22T05:55:37.628Z,77.81
2023-02-22T05:56:37.611Z,77.51
2023-02-22T05:57:37.604Z,77.34
2023-02-22T05:58:37.590Z,77.30
2023-02-22T05:59:37.581Z,77.30
2023-02-22T06:00:37.569Z,77.23
2023-02-22T06:01:37.616Z,77.30
2023-02-22T06:02:37.555Z,77.20
2023-02-22T06:03:37.536Z,76.99
2023-02-22T06:04:37.528Z,77.09
2023-02-22T06:05:37.612Z,77.20
2023-02-22T06:06:37.529Z,76.69
2023-02-22T06:07:37.498Z,76.48
2023-02-22T06:08:37.486Z,76.21
2023-02-22T06:09:37.475Z,76.07
2023-02-22T06:10:37.463Z,76.07
2023-02-22T06:11:37.457Z,75.76
2023-02-22T06:12:37.446Z,75.35
2023-02-22T06:13:37.430Z,75.14
2023-02-22T06:14:37.419Z,74.46
2023-02-22T06:15:37.415Z,74.22
2023-02-22T06:16:37.438Z,74.22
2023-02-22T06:17:37.392Z,74.22
2023-02-22T06:18:37.378Z,74.01
2023-02-22T06:19:37.375Z,73.60
2023-02-22T06:20:37.362Z,72.99
2023-02-22T06:21:37.349Z,72.91
2023-02-22T06:22:37.360Z,72.30
2023-02-22T06:23:37.332Z,72.19
2023-02-22T06:24:37.316Z,71.96
2023-02-22T06:25:37.307Z,71.75
2023-02-22T06:26:37.314Z,71.65
2023-02-22T06:27:37.307Z,71.47
2023-02-22T06:28:37.272Z,71.27
2023-02-22T06:29:37.266Z,70.75
2023-02-22T06:30:37.286Z,70.66
2023-02-22T06:31:37.286Z,70.62
2023-02-22T06:32:37.240Z,70.34
2023-02-22T06:33:37.221Z,70.45
2023-02-22T06:34:37.232Z,70.31
2023-02-22T06:35:37.197Z,69.79
2023-02-22T06:36:37.192Z,69.62
2023-02-22T06:37:37.186Z,69.62
2023-02-22T06:38:37.193Z,69.42
2023-02-22T06:39:37.171Z,69.21
2023-02-22T06:40:37.170Z,68.77
2023-02-22T06:41:37.149Z,68.49
2023-02-22T06:42:37.134Z,67.98
2023-02-22T06:43:37.122Z,67.26
2023-02-22T06:44:37.107Z,66.85
2023-02-22T06:45:37.147Z,66.64
2023-02-22T06:46:37.086Z,66.23
2023-02-22T06:47:37.072Z,65.72
2023-02-22T06:48:37.070Z,65.41
2023-02-22T06:49:37.055Z,64.69
2023-02-22T06:50:37.046Z,64.48
2023-02-22T06:51:37.038Z,63.66
2023-02-22T06:52:37.019Z,63.56
2023-02-22T06:53:37.016Z,62.73
2023-02-22T06:54:37.022Z,62.73
2023-02-22T06:55:36.996Z,63.25
2023-02-22T06:56:36.976Z,99.99
2023-02-22T06:57:36.972Z,62.94
2023-02-22T06:58:36.964Z,62.84
2023-02-22T06:59:36.950Z,62.84
2023-02-22T07:00:37.027Z,62.42
2023-02-22T07:01:36.932Z,62.42
2023-02-22T07:02:36.922Z,62.32
2023-02-22T07:03:37.004Z,62.53
2023-02-22T07:04:37.282Z,62.32
2023-02-22T07:05:36.890Z,62.32
2023-02-22T07:06:36.873Z,62.29
2023-02-22T07:07:36.867Z,62.42
2023-02-22T07:08:36.853Z,62.42
2023-02-22T07:09:36.849Z,62.32
2023-02-22T07:10:36.890Z,62.42
2023-02-22T07:11:36.830Z,62.42
2023-02-22T07:12:36.816Z,62.42
2023-02-22T07:13:36.801Z,62.73
2023-02-22T07:14:36.792Z,62.73
2023-02-22T07:15:36.789Z,63.04
2023-02-22T07:16:36.818Z,63.14
2023-02-22T07:17:36.760Z,63.14
2023-02-22T07:18:36.758Z,63.56
2023-02-22T07:19:36.753Z,63.53
2023-02-22T07:20:36.729Z,64.55
2023-02-22T07:21:36.722Z,64.97
2023-02-22T07:22:36.762Z,65.17
2023-02-22T07:23:36.699Z,65.17
2023-02-22T07:24:36.695Z,65.48
2023-02-22T07:25:36.683Z,65.79
2023-02-22T07:26:36.701Z,66.02
2023-02-22T07:27:36.659Z,66.51
2023-02-22T07:28:36.648Z,66.61
2023-02-22T07:29:36.649Z,66.61
2023-02-22T07:30:36.756Z,66.51
2023-02-22T07:31:36.618Z,66.64
2023-02-22T07:32:36.769Z,66.85
2023-02-22T07:33:36.599Z,66.85
2023-02-22T07:34:36.590Z,66.44
2023-02-22T07:35:36.618Z,66.20
2023-02-22T07:36:36.570Z,66.23
2023-02-22T07:37:36.557Z,65.92
2023-02-22T07:38:36.553Z,66.41
2023-02-22T07:39:36.535Z,66.30
2023-02-22T07:40:36.525Z,65.99
2023-02-22T07:41:36.520Z,65.99
2023-02-22T07:42:36.533Z,65.89
2023-02-22T07:43:36.499Z,66.23
2023-02-22T07:44:36.484Z,65.82
2023-02-22T07:45:36.513Z,65.72
2023-02-22T07:46:36.463Z,65.51
2023-02-22T07:47:36.452Z,65.41
2023-02-22T07:48:36.448Z,65.41
2023-02-22T07:49:36.431Z,65.82
2023-02-22T07:50:36.431Z,65.51
2023-02-22T07:51:36.428Z,65.61
2023-02-22T07:52:36.404Z,66.30
2023-02-22T07:53:36.396Z,66.61
2023-02-22T07:54:36.388Z,67.46
2023-02-22T07:55:36.371Z,67.23
2023-02-22T07:56:36.365Z,68.08
2023-02-22T07:57:36.348Z,67.84
2023-02-22T07:58:36.367Z,67.67
2023-02-22T07:59:36.333Z,67.43
2023-02-22T08:00:36.325Z,67.43
2023-02-22T08:01:37.498Z,68.67
2023-02-22T08:02:36.400Z,68.87
2023-02-22T08:03:36.445Z,69.21
2023-02-22T08:04:36.279Z,68.98
2023-02-22T08:05:36.296Z,68.87
2023-02-22T08:06:36.262Z,69.01
2023-02-22T08:07:36.253Z,69.18
2023-02-22T08:08:36.240Z,69.70
2023-02-22T08:09:36.230Z,70.31
2023-02-22T08:10:36.225Z,69.18
2023-02-22T08:11:36.212Z,68.87
2023-02-22T08:12:36.222Z,68.05
2023-02-22T08:13:36.188Z,68.15
2023-02-22T08:14:36.261Z,67.84
2023-02-22T08:15:36.168Z,69.08
2023-02-22T08:16:36.216Z,69.28
2023-02-22T08:17:36.145Z,70.21
2023-02-22T08:18:36.138Z,70.93
2023-02-22T08:19:36.126Z,71.82
2023-02-22T08:20:36.113Z,72.37
2023-02-22T08:21:36.106Z,72.78
2023-02-22T08:22:36.097Z,72.33
2023-02-22T08:23:36.089Z,71.75
2023-02-22T08:24:36.071Z,70.41
2023-02-22T08:25:36.079Z,70.93
2023-02-22T08:26:36.070Z,71.85
2023-02-22T08:27:36.044Z,72.57
2023-02-22T08:28:36.046Z,72.78
2023-02-22T08:29:36.026Z,72.99
2023-02-22T08:30:38.283Z,72.37
2023-02-22T08:31:36.022Z,71.24
2023-02-22T08:32:36.087Z,70.62
2023-02-22T08:33:35.981Z,71.13
2023-02-22T08:34:35.968Z,70.83
2023-02-22T08:35:35.963Z,71.24
2023-02-22T08:36:35.954Z,71.65
2023-02-22T08:37:35.941Z,71.65
2023-02-22T08:38:35.931Z,71.55
2023-02-22T08:39:35.928Z,70.93
2023-02-22T08:40:35.912Z,71.44
2023-02-22T08:41:35.897Z,70.83
2023-02-22T08:42:35.889Z,70.93
2023-02-22T08:43:35.876Z,71.44
2023-02-22T08:44:35.867Z,72.13
2023-02-22T08:45:35.920Z,72.74
2023-02-22T08:46:35.876Z,73.05
2023-02-22T08:47:35.838Z,74.90
2023-02-22T08:48:35.825Z,74.90
2023-02-22T08:49:35.814Z,74.59
2023-02-22T08:50:35.808Z,74.39
2023-02-22T08:51:35.803Z,74.67
2023-02-22T08:52:35.785Z,74.90
2023-02-22T08:53:35.768Z,75.79
2023-02-22T08:54:35.807Z,77.23
2023-02-22T08:55:35.748Z,79.59
2023-02-22T08:56:35.744Z,79.80
2023-02-22T08:57:35.729Z,79.35
2023-02-22T08:58:35.717Z,79.45
2023-02-22T08:59:35.814Z,81.81
2023-02-22T09:00:35.697Z,81.20
2023-02-22T09:01:36.197Z,81.20
2023-02-22T09:02:35.697Z,80.41
2023-02-22T09:03:35.764Z,79.97
2023-02-22T09:04:35.648Z,81.61
2023-02-22T09:05:35.657Z,82.64
2023-02-22T09:06:35.629Z,81.98
2023-02-22T09:07:35.618Z,83.66
2023-02-22T09:08:35.611Z,82.74
2023-02-22T09:09:35.594Z,82.23
2023-02-22T09:10:35.604Z,82.94
2023-02-22T09:11:35.572Z,84.96
2023-02-22T09:12:35.561Z,84.49
2023-02-22T09:13:35.550Z,82.84
2023-02-22T09:14:35.539Z,83.66
2023-02-22T09:15:35.529Z,84.24
2023-02-22T09:16:35.563Z,83.11
2023-02-22T09:17:35.517Z,84.44
2023-02-22T09:18:43.805Z,85.12
2023-02-22T09:19:36.514Z,85.84
2023-02-22T09:20:35.476Z,85.98
2023-02-22T09:21:35.470Z,85.84
2023-02-22T09:22:35.487Z,85.68
2023-02-22T09:23:35.448Z,87.07
2023-02-22T09:24:35.435Z,88.30
2023-02-22T09:25:35.423Z,88.51
2023-02-22T09:26:35.415Z,88.72
2023-02-22T09:27:35.407Z,87.79
2023-02-22T09:28:35.393Z,87.79
2023-02-22T09:29:35.383Z,87.28
2023-02-22T09:30:35.464Z,87.89
2023-02-22T09:31:35.451Z,88.06
2023-02-22T09:32:35.666Z,89.45
2023-02-22T09:33:35.341Z,90.27
2023-02-22T09:34:35.364Z,89.96
2023-02-22T09:35:35.319Z,89.51
2023-02-22T09:36:35.315Z,91.05
2023-02-22T09:37:35.303Z,92.27
2023-02-22T09:38:35.285Z,92.89
2023-02-22T09:39:35.321Z,93.20
2023-02-22T09:40:35.270Z,91.87
2023-02-22T09:41:36.303Z,91.66
2023-02-22T09:42:35.245Z,91.87
2023-02-22T09:43:35.240Z,91.35
2023-02-22T09:44:35.224Z,93.10
2023-02-22T09:45:35.276Z,91.97
2023-02-22T09:46:35.218Z,92.03
2023-02-22T09:47:35.226Z,93.56
2023-02-22T09:48:35.181Z,93.56
2023-02-22T09:49:35.175Z,93.26
2023-02-22T09:50:35.193Z,93.30
2023-02-22T09:51:35.156Z,93.71
2023-02-22T09:52:35.142Z,92.99
2023-02-22T09:53:35.132Z,93.30
2023-02-22T09:54:35.118Z,93.51
2023-02-22T09:55:35.126Z,93.98
2023-02-22T09:56:35.116Z,93.98
2023-02-22T09:57:35.113Z,94.24
2023-02-22T09:58:35.091Z,94.54
2023-02-22T09:59:35.067Z,94.70
2023-02-22T10:00:35.068Z,94.40
2023-02-22T10:01:35.047Z,95.83
2023-02-22T10:02:35.046Z,95.69
2023-02-22T10:03:35.035Z,96.03
2023-02-22T10:04:35.022Z,95.07
2023-02-22T10:05:35.052Z,95.37
2023-02-22T10:06:35.024Z,95.94
2023-02-22T10:07:34.992Z,95.28
2023-02-22T10:08:34.985Z,95.89
2023-02-22T10:09:34.972Z,96.60
2023-02-22T10:10:35.124Z,96.09
2023-02-22T10:11:34.945Z,96.05
2023-02-22T10:12:34.944Z,96.15
2023-02-22T10:13:34.920Z,96.20
2023-02-22T10:14:34.918Z,96.61
2023-02-22T10:15:34.906Z,96.31
2023-02-22T10:16:34.906Z,96.67
2023-02-22T10:17:34.878Z,96.42
2023-02-22T10:18:34.873Z,96.27
2023-02-22T10:19:34.857Z,96.47
2023-02-22T10:20:34.849Z,96.31
2023-02-22T10:21:34.843Z,96.67
2023-02-22T10:22:34.853Z,96.07
2023-02-22T10:23:34.825Z,95.97
2023-02-22T10:24:34.807Z,95.42
2023-02-22T10:25:34.796Z,95.17
2023-02-22T10:26:34.789Z,94.65
2023-02-22T10:27:34.785Z,94.11
2023-02-22T10:28:34.770Z,93.09
2023-02-22T10:29:34.755Z,93.68
2023-02-22T10:30:34.987Z,94.19
2023-02-22T10:31:34.886Z,94.75
2023-02-22T10:32:34.781Z,95.05
2023-02-22T10:33:34.717Z,95.05
2023-02-22T10:34:34.704Z,94.65
2023-02-22T10:35:34.696Z,91.02
2023-02-22T10:36:34.685Z,86.16
2023-02-22T10:37:34.720Z,86.30
2023-02-22T10:38:34.723Z,88.32
2023-02-22T10:39:34.720Z,92.05
2023-02-22T10:40:34.642Z,94.90
2023-02-22T10:41:34.637Z,94.11
2023-02-22T10:42:34.631Z,92.57
2023-02-22T10:43:34.608Z,91.05
2023-02-22T10:44:34.621Z,92.48
2023-02-22T10:45:34.694Z,91.31
2023-02-22T10:46:34.576Z,91.61
2023-02-22T10:47:34.568Z,91.21
2023-02-22T10:48:34.561Z,86.61
2023-02-22T10:49:34.550Z,83.22
2023-02-22T10:50:34.546Z,85.08
2023-02-22T10:51:34.540Z,82.67
2023-02-22T10:52:34.531Z,78.47
2023-02-22T10:53:36.467Z,77.08
2023-02-22T10:54:34.525Z,79.48
2023-02-22T10:55:34.564Z,78.10
2023-02-22T10:56:34.480Z,77.52
2023-02-22T10:57:34.464Z,73.52
2023-02-22T10:58:34.458Z,74.74
2023-02-22T10:59:34.452Z,72.00
2023-02-22T11:00:34.442Z,68.52
2023-02-22T11:01:34.455Z,70.38
2023-02-22T11:02:34.417Z,74.88
2023-02-22T11:03:34.405Z,80.02
2023-02-22T11:04:34.497Z,79.04
2023-02-22T11:05:34.385Z,74.30
2023-02-22T11:06:34.372Z,68.06
2023-02-22T11:07:34.365Z,73.80
2023-02-22T11:08:34.356Z,77.69
2023-02-22T11:09:34.338Z,77.79
2023-02-22T11:10:34.359Z,76.47
2023-02-22T11:11:34.329Z,76.84
2023-02-22T11:12:34.311Z,76.81
2023-02-22T11:13:34.310Z,73.87
2023-02-22T11:14:34.290Z,78.36
2023-02-22T11:15:34.280Z,76.23
2023-02-22T11:16:34.289Z,76.36
2023-02-22T11:17:34.267Z,73.42
2023-02-22T11:18:34.252Z,71.90
2023-02-22T11:19:34.237Z,72.44
2023-02-22T11:20:34.231Z,72.34
2023-02-22T11:21:34.219Z,73.02
2023-02-22T11:22:34.206Z,73.12
2023-02-22T11:23:34.201Z,72.27
2023-02-22T11:24:48.445Z,70.48
2023-02-22T11:25:35.199Z,69.34
2023-02-22T11:26:34.198Z,65.86
2023-02-22T11:27:34.160Z,65.93
2023-02-22T11:28:34.148Z,65.42
2023-02-22T11:29:34.163Z,67.62
2023-02-22T11:30:34.249Z,65.25
2023-02-22T11:31:34.154Z,66.43
2023-02-22T11:32:34.116Z,68.96
2023-02-22T11:33:34.098Z,66.30
2023-02-22T11:34:34.090Z,65.22
2023-02-22T11:35:34.078Z,66.33
2023-02-22T11:36:34.068Z,64.44
2023-02-22T11:37:34.058Z,65.22
2023-02-22T11:38:34.047Z,65.05
2023-02-22T11:39:34.146Z,62.25
2023-02-22T11:40:34.816Z,63.29
2023-02-22T11:41:34.012Z,61.50
2023-02-22T11:42:34.032Z,61.62
2023-02-22T11:43:33.995Z,60.34
2023-02-22T11:44:33.984Z,59.53
2023-02-22T11:45:33.971Z,59.23
2023-02-22T11:46:33.999Z,59.99
2023-02-22T11:47:33.957Z,60.37
2023-02-22T11:48:33.942Z,59.36
2023-02-22T11:49:33.929Z,60.49
2023-02-22T11:50:33.916Z,60.56
2023-02-22T11:51:33.912Z,59.49
2023-02-22T11:52:33.900Z,59.56
2023-02-22T11:53:33.894Z,58.32
2023-02-22T11:54:33.876Z,57.59
2023-02-22T11:55:42.783Z,57.01
2023-02-22T11:56:38.156Z,59.92
2023-02-22T11:57:33.852Z,60.22
2023-02-22T11:58:33.931Z,61.52
2023-02-22T11:59:33.831Z,63.15
2023-02-22T12:00:33.823Z,63.65
2023-02-22T12:01:33.806Z,65.24
2023-02-22T12:02:33.799Z,66.82
2023-02-22T12:03:33.844Z,67.74
2023-02-22T12:04:33.885Z,67.43
2023-02-22T12:05:33.769Z,66.79
2023-02-22T12:06:33.757Z,65.85
2023-02-22T12:07:33.743Z,64.94
2023-02-22T12:08:33.737Z,64.39
2023-02-22T12:09:33.722Z,65.41
2023-02-22T12:10:33.712Z,65.28
2023-02-22T12:11:33.704Z,62.95
2023-02-22T12:12:33.698Z,63.28
2023-02-22T12:13:33.680Z,63.38
2023-02-22T12:14:33.693Z,62.64
2023-02-22T12:15:33.675Z,61.73
2023-02-22T12:16:33.651Z,62.24
2023-02-22T12:17:33.642Z,61.83
2023-02-22T12:18:33.630Z,60.15
2023-02-22T12:19:33.617Z,59.08
2023-02-22T12:20:33.603Z,59.16
2023-02-22T12:21:33.597Z,58.32
2023-02-22T12:22:33.615Z,55.36
2023-02-22T12:23:33.590Z,55.67
2023-02-22T12:24:33.565Z,53.85
2023-02-22T12:25:33.554Z,54.40
2023-02-22T12:26:33.546Z,55.31
2023-02-22T12:27:33.535Z,55.85
2023-02-22T12:28:33.587Z,55.74
2023-02-22T12:29:33.523Z,55.62
2023-02-22T12:30:33.577Z,55.01
2023-02-22T12:31:33.690Z,55.59
2023-02-22T12:32:33.576Z,55.41
2023-02-22T12:33:33.498Z,56.38
2023-02-22T12:34:33.529Z,57.75
2023-02-22T12:35:33.454Z,58.46
2023-02-22T12:36:33.444Z,59.46
2023-02-22T12:37:33.435Z,61.67
2023-02-22T12:38:33.427Z,63.73
2023-02-22T12:39:38.315Z,65.69
2023-02-22T12:40:34.429Z,66.95
2023-02-22T12:41:33.391Z,67.32
2023-02-22T12:42:33.387Z,67.09
2023-02-22T12:43:33.386Z,67.22
2023-02-22T12:44:33.361Z,69.79
2023-02-22T12:45:33.358Z,71.12
2023-02-22T12:46:33.468Z,71.42
2023-02-22T12:47:33.329Z,69.66
2023-02-22T12:48:33.326Z,71.32
2023-02-22T12:49:33.309Z,71.94
2023-02-22T12:50:33.297Z,71.09
2023-02-22T12:51:33.307Z,71.36
2023-02-22T12:52:33.279Z,70.24